sensor_id;sensor_type;location;lat;lon;timestamp;P1;durP1;ratioP1;P2;durP2;ratioP2
64403;SDS011;50726;54.912;-8.392;2023-02-04T00:13:00;351.38;;;270.20;;
64403;SDS011;50726;54.912;-8.392;2023-02-04T00:15:27;364.30;;;274.48;;
64403;SDS011;50726;54.912;-8.392;2023-02-04T00:17:54;358.58;;;270.08;;
64403;SDS011;50726;54.912;-8.392;2023-02-04T00:20:21;365.10;;;273.52;;
64403;SDS011;50726;54.912;-8.392;2023-02-04T00:22:53;362.02;;;268.35;;
64403;SDS011;50726;54.912;-8.392;2023-02-04T00:25:19;355.25;;;269.38;;
64403;SDS011;50726;54.912;-8.392;2023-02-04T00:27:48;349.10;;;263.00;;
64403;SDS011;50726;54.912;-8.392;2023-02-04T00:30:14;360.15;;;276.92;;
64403;SDS011;50726;54.912;-8.392;2023-02-04T00:32:40;347.73;;;274.17;;
64403;SDS011;50726;54.912;-8.392;2023-02-04T00:35:08;355.35;;;264.70;;
64403;SDS011;50726;54.912;-8.392;2023-02-04T00:37:35;348.23;;;265.48;;
64403;SDS011;50726;54.912;-8.392;2023-02-04T00:40:04;345.20;;;266.92;;
64403;SDS011;50726;54.912;-8.392;2023-02-04T00:42:31;349.02;;;265.95;;
64403;SDS011;50726;54.912;-8.392;2023-02-04T00:44:57;351.15;;;263.23;;
64403;SDS011;50726;54.912;-8.392;2023-02-04T00:47:22;345.25;;;263.95;;
64403;SDS011;50726;54.912;-8.392;2023-02-04T00:49:48;344.58;;;263.02;;
64403;SDS011;50726;54.912;-8.392;2023-02-04T00:52:16;358.92;;;263.50;;
64403;SDS011;50726;54.912;-8.392;2023-02-04T00:54:41;352.95;;;253.60;;
64403;SDS011;50726;54.912;-8.392;2023-02-04T00:57:07;345.40;;;250.63;;
64403;SDS011;50726;54.912;-8.392;2023-02-04T00:59:32;353.52;;;257.10;;
64403;SDS011;50726;54.912;-8.392;2023-02-04T01:01:58;346.60;;;253.50;;
64403;SDS011;50726;54.912;-8.392;2023-02-04T01:04:24;348.77;;;253.25;;
64403;SDS011;50726;54.912;-8.392;2023-02-04T01:06:50;354.30;;;259.83;;
64403;SDS011;50726;54.912;-8.392;2023-02-04T01:09:16;346.75;;;264.83;;
64403;SDS011;50726;54.912;-8.392;2023-02-04T01:11:41;347.65;;;258.88;;
64403;SDS011;50726;54.912;-8.392;2023-02-04T01:14:07;359.30;;;259.50;;
64403;SDS011;50726;54.912;-8.392;2023-02-04T01:16:32;361.02;;;262.83;;
64403;SDS011;50726;54.912;-8.392;2023-02-04T01:18:58;347.13;;;260.67;;
64403;SDS011;50726;54.912;-8.392;2023-02-04T01:21:24;355.13;;;255.93;;
64403;SDS011;50726;54.912;-8.392;2023-02-04T01:23:50;354.05;;;256.88;;
64403;SDS011;50726;54.912;-8.392;2023-02-04T01:26:19;336.45;;;270.00;;
64403;SDS011;50726;54.912;-8.392;2023-02-04T01:28:45;345.98;;;259.20;;
64403;SDS011;50726;54.912;-8.392;2023-02-04T01:31:11;352.30;;;264.80;;
64403;SDS011;50726;54.912;-8.392;2023-02-04T01:33:38;360.38;;;269.52;;
64403;SDS011;50726;54.912;-8.392;2023-02-04T01:36:04;352.15;;;272.75;;
64403;SDS011;50726;54.912;-8.392;2023-02-04T01:38:30;367.05;;;276.30;;
64403;SDS011;50726;54.912;-8.392;2023-02-04T01:40:56;355.73;;;272.60;;
64403;SDS011;50726;54.912;-8.392;2023-02-04T01:43:23;378.90;;;264.70;;
64403;SDS011;50726;54.912;-8.392;2023-02-04T01:45:50;373.10;;;272.30;;
64403;SDS011;50726;54.912;-8.392;2023-02-04T01:48:16;326.73;;;196.88;;
64403;SDS011;50726;54.912;-8.392;2023-02-04T01:50:49;326.23;;;217.02;;
64403;SDS011;50726;54.912;-8.392;2023-02-04T01:53:17;321.75;;;217.60;;
64403;SDS011;50726;54.912;-8.392;2023-02-04T01:58:13;328.33;;;220.15;;
64403;SDS011;50726;54.912;-8.392;2023-02-04T02:00:39;321.08;;;215.30;;
64403;SDS011;50726;54.912;-8.392;2023-02-04T02:03:06;327.02;;;214.15;;
64403;SDS011;50726;54.912;-8.392;2023-02-04T02:08:05;345.10;;;216.88;;
64403;SDS011;50726;54.912;-8.392;2023-02-04T02:10:32;340.60;;;221.27;;
64403;SDS011;50726;54.912;-8.392;2023-02-04T02:12:59;333.42;;;226.27;;
64403;SDS011;50726;54.912;-8.392;2023-02-04T02:15:24;335.73;;;222.73;;
64403;SDS011;50726;54.912;-8.392;2023-02-04T02:17:51;338.30;;;227.00;;
64403;SDS011;50726;54.912;-8.392;2023-02-04T02:20:22;333.40;;;224.02;;
64403;SDS011;50726;54.912;-8.392;2023-02-04T02:22:52;342.27;;;232.48;;
64403;SDS011;50726;54.912;-8.392;2023-02-04T02:25:26;349.13;;;237.82;;
64403;SDS011;50726;54.912;-8.392;2023-02-04T02:27:51;353.52;;;239.02;;
64403;SDS011;50726;54.912;-8.392;2023-02-04T02:30:18;335.48;;;229.48;;
64403;SDS011;50726;54.912;-8.392;2023-02-04T02:32:44;344.58;;;226.63;;
64403;SDS011;50726;54.912;-8.392;2023-02-04T02:35:12;341.98;;;222.88;;
64403;SDS011;50726;54.912;-8.392;2023-02-04T02:37:38;343.60;;;228.73;;
64403;SDS011;50726;54.912;-8.392;2023-02-04T02:40:04;337.20;;;225.73;;
64403;SDS011;50726;54.912;-8.392;2023-02-04T02:42:31;329.50;;;213.98;;
64403;SDS011;50726;54.912;-8.392;2023-02-04T02:44:57;317.20;;;214.43;;
64403;SDS011;50726;54.912;-8.392;2023-02-04T02:47:24;329.25;;;224.05;;
64403;SDS011;50726;54.912;-8.392;2023-02-04T02:49:52;314.17;;;216.45;;
64403;SDS011;50726;54.912;-8.392;2023-02-04T02:52:19;328.25;;;218.57;;
64403;SDS011;50726;54.912;-8.392;2023-02-04T02:54:47;315.70;;;216.52;;
64403;SDS011;50726;54.912;-8.392;2023-02-04T02:57:19;319.13;;;213.07;;
64403;SDS011;50726;54.912;-8.392;2023-02-04T02:59:47;317.77;;;208.68;;
64403;SDS011;50726;54.912;-8.392;2023-02-04T03:02:13;337.42;;;215.50;;
64403;SDS011;50726;54.912;-8.392;2023-02-04T03:04:43;333.75;;;213.05;;
64403;SDS011;50726;54.912;-8.392;2023-02-04T03:07:14;331.55;;;212.90;;
64403;SDS011;50726;54.912;-8.392;2023-02-04T03:09:42;338.48;;;212.90;;
64403;SDS011;50726;54.912;-8.392;2023-02-04T03:12:09;344.23;;;213.65;;
64403;SDS011;50726;54.912;-8.392;2023-02-04T03:14:36;350.25;;;214.15;;
64403;SDS011;50726;54.912;-8.392;2023-02-04T03:17:03;349.67;;;220.13;;
64403;SDS011;50726;54.912;-8.392;2023-02-04T03:19:31;351.67;;;222.27;;
64403;SDS011;50726;54.912;-8.392;2023-02-04T03:21:57;346.23;;;215.57;;
64403;SDS011;50726;54.912;-8.392;2023-02-04T03:24:24;351.92;;;214.82;;
64403;SDS011;50726;54.912;-8.392;2023-02-04T03:26:50;345.63;;;220.10;;
64403;SDS011;50726;54.912;-8.392;2023-02-04T03:29:16;370.13;;;226.20;;
64403;SDS011;50726;54.912;-8.392;2023-02-04T03:31:42;353.42;;;220.65;;
64403;SDS011;50726;54.912;-8.392;2023-02-04T03:34:08;351.10;;;222.25;;
64403;SDS011;50726;54.912;-8.392;2023-02-04T03:36:34;349.45;;;218.13;;
64403;SDS011;50726;54.912;-8.392;2023-02-04T03:39:00;351.38;;;226.80;;
64403;SDS011;50726;54.912;-8.392;2023-02-04T03:41:27;349.27;;;225.77;;
64403;SDS011;50726;54.912;-8.392;2023-02-04T03:43:53;342.63;;;228.35;;
64403;SDS011;50726;54.912;-8.392;2023-02-04T03:46:19;336.52;;;217.88;;
64403;SDS011;50726;54.912;-8.392;2023-02-04T03:48:47;327.10;;;217.07;;
64403;SDS011;50726;54.912;-8.392;2023-02-04T03:51:12;319.13;;;214.35;;
64403;SDS011;50726;54.912;-8.392;2023-02-04T03:53:38;345.80;;;220.52;;
64403;SDS011;50726;54.912;-8.392;2023-02-04T03:56:04;336.40;;;224.00;;
64403;SDS011;50726;54.912;-8.392;2023-02-04T03:58:29;346.42;;;226.70;;
64403;SDS011;50726;54.912;-8.392;2023-02-04T04:00:55;325.30;;;227.38;;
64403;SDS011;50726;54.912;-8.392;2023-02-04T04:03:20;325.00;;;218.40;;
64403;SDS011;50726;54.912;-8.392;2023-02-04T04:05:46;322.38;;;217.27;;
64403;SDS011;50726;54.912;-8.392;2023-02-04T04:08:12;316.13;;;217.02;;
64403;SDS011;50726;54.912;-8.392;2023-02-04T04:10:38;326.70;;;217.25;;
64403;SDS011;50726;54.912;-8.392;2023-02-04T04:13:04;321.95;;;216.90;;
64403;SDS011;50726;54.912;-8.392;2023-02-04T04:15:30;318.10;;;219.52;;
64403;SDS011;50726;54.912;-8.392;2023-02-04T04:17:55;311.98;;;220.05;;
64403;SDS011;50726;54.912;-8.392;2023-02-04T04:20:23;312.65;;;220.48;;
64403;SDS011;50726;54.912;-8.392;2023-02-04T04:22:50;316.75;;;220.57;;
64403;SDS011;50726;54.912;-8.392;2023-02-04T04:25:16;315.88;;;215.32;;
64403;SDS011;50726;54.912;-8.392;2023-02-04T04:27:42;307.58;;;211.45;;
64403;SDS011;50726;54.912;-8.392;2023-02-04T04:30:07;305.58;;;218.60;;
64403;SDS011;50726;54.912;-8.392;2023-02-04T04:32:33;311.67;;;212.13;;
64403;SDS011;50726;54.912;-8.392;2023-02-04T04:34:59;306.65;;;208.98;;
64403;SDS011;50726;54.912;-8.392;2023-02-04T04:37:25;308.23;;;211.48;;
64403;SDS011;50726;54.912;-8.392;2023-02-04T04:39:51;324.50;;;215.07;;
64403;SDS011;50726;54.912;-8.392;2023-02-04T04:42:17;314.88;;;216.48;;
64403;SDS011;50726;54.912;-8.392;2023-02-04T04:44:43;308.02;;;218.77;;
64403;SDS011;50726;54.912;-8.392;2023-02-04T04:47:08;305.65;;;220.20;;
64403;SDS011;50726;54.912;-8.392;2023-02-04T04:49:35;304.60;;;223.68;;
64403;SDS011;50726;54.912;-8.392;2023-02-04T04:52:01;320.08;;;223.75;;
64403;SDS011;50726;54.912;-8.392;2023-02-04T04:54:26;348.00;;;232.65;;
64403;SDS011;50726;54.912;-8.392;2023-02-04T04:56:52;333.65;;;233.35;;
64403;SDS011;50726;54.912;-8.392;2023-02-04T04:59:17;343.98;;;232.82;;
64403;SDS011;50726;54.912;-8.392;2023-02-04T05:01:43;360.55;;;229.73;;
64403;SDS011;50726;54.912;-8.392;2023-02-04T05:04:09;349.92;;;232.43;;
64403;SDS011;50726;54.912;-8.392;2023-02-04T05:06:36;358.77;;;235.55;;
64403;SDS011;50726;54.912;-8.392;2023-02-04T05:09:03;359.90;;;237.73;;
64403;SDS011;50726;54.912;-8.392;2023-02-04T05:11:28;367.92;;;234.15;;
64403;SDS011;50726;54.912;-8.392;2023-02-04T05:13:55;355.08;;;228.10;;
64403;SDS011;50726;54.912;-8.392;2023-02-04T05:16:20;360.58;;;229.32;;
64403;SDS011;50726;54.912;-8.392;2023-02-04T05:18:46;359.17;;;230.25;;
64403;SDS011;50726;54.912;-8.392;2023-02-04T05:21:12;366.23;;;228.32;;
64403;SDS011;50726;54.912;-8.392;2023-02-04T05:23:37;384.80;;;231.57;;
64403;SDS011;50726;54.912;-8.392;2023-02-04T05:26:03;365.75;;;233.27;;
64403;SDS011;50726;54.912;-8.392;2023-02-04T05:28:29;373.63;;;230.00;;
64403;SDS011;50726;54.912;-8.392;2023-02-04T05:30:54;356.75;;;228.00;;
64403;SDS011;50726;54.912;-8.392;2023-02-04T05:33:20;362.65;;;225.75;;
64403;SDS011;50726;54.912;-8.392;2023-02-04T05:35:45;367.17;;;226.70;;
64403;SDS011;50726;54.912;-8.392;2023-02-04T05:38:11;363.75;;;230.88;;
64403;SDS011;50726;54.912;-8.392;2023-02-04T05:40:37;365.30;;;239.43;;
64403;SDS011;50726;54.912;-8.392;2023-02-04T05:43:02;372.63;;;233.10;;
64403;SDS011;50726;54.912;-8.392;2023-02-04T05:45:30;349.58;;;231.23;;
64403;SDS011;50726;54.912;-8.392;2023-02-04T05:47:57;378.85;;;224.80;;
64403;SDS011;50726;54.912;-8.392;2023-02-04T05:50:23;367.02;;;222.73;;
64403;SDS011;50726;54.912;-8.392;2023-02-04T05:52:50;357.08;;;215.98;;
64403;SDS011;50726;54.912;-8.392;2023-02-04T05:55:15;332.35;;;220.05;;
64403;SDS011;50726;54.912;-8.392;2023-02-04T05:57:41;347.83;;;220.77;;
64403;SDS011;50726;54.912;-8.392;2023-02-04T06:00:07;328.50;;;220.40;;
64403;SDS011;50726;54.912;-8.392;2023-02-04T06:02:34;334.80;;;221.38;;
64403;SDS011;50726;54.912;-8.392;2023-02-04T06:05:00;335.80;;;213.48;;
64403;SDS011;50726;54.912;-8.392;2023-02-04T06:07:25;334.63;;;212.23;;
64403;SDS011;50726;54.912;-8.392;2023-02-04T06:09:51;325.00;;;210.38;;
64403;SDS011;50726;54.912;-8.392;2023-02-04T06:12:17;324.77;;;212.65;;
64403;SDS011;50726;54.912;-8.392;2023-02-04T06:14:43;332.45;;;211.32;;
64403;SDS011;50726;54.912;-8.392;2023-02-04T06:17:12;335.35;;;213.32;;
64403;SDS011;50726;54.912;-8.392;2023-02-04T06:19:37;327.73;;;218.47;;
64403;SDS011;50726;54.912;-8.392;2023-02-04T06:22:03;321.27;;;219.27;;
64403;SDS011;50726;54.912;-8.392;2023-02-04T06:24:29;323.40;;;213.40;;
64403;SDS011;50726;54.912;-8.392;2023-02-04T06:26:54;334.48;;;220.25;;
64403;SDS011;50726;54.912;-8.392;2023-02-04T06:29:20;317.70;;;212.85;;
64403;SDS011;50726;54.912;-8.392;2023-02-04T06:31:45;330.60;;;200.82;;
64403;SDS011;50726;54.912;-8.392;2023-02-04T06:34:14;332.63;;;198.50;;
64403;SDS011;50726;54.912;-8.392;2023-02-04T06:36:40;320.67;;;198.30;;
64403;SDS011;50726;54.912;-8.392;2023-02-04T06:39:05;333.15;;;198.82;;
64403;SDS011;50726;54.912;-8.392;2023-02-04T06:41:31;325.48;;;190.95;;
64403;SDS011;50726;54.912;-8.392;2023-02-04T06:43:57;325.00;;;191.35;;
64403;SDS011;50726;54.912;-8.392;2023-02-04T06:46:23;308.15;;;192.05;;
64403;SDS011;50726;54.912;-8.392;2023-02-04T06:48:48;318.25;;;190.38;;
64403;SDS011;50726;54.912;-8.392;2023-02-04T06:51:14;302.77;;;185.73;;
64403;SDS011;50726;54.912;-8.392;2023-02-04T06:53:39;301.90;;;183.90;;
64403;SDS011;50726;54.912;-8.392;2023-02-04T06:56:08;302.10;;;191.48;;
64403;SDS011;50726;54.912;-8.392;2023-02-04T06:58:36;316.42;;;191.63;;
64403;SDS011;50726;54.912;-8.392;2023-02-04T07:01:02;305.02;;;220.45;;
64403;SDS011;50726;54.912;-8.392;2023-02-04T07:03:29;303.75;;;220.23;;
64403;SDS011;50726;54.912;-8.392;2023-02-04T07:05:54;298.50;;;217.45;;
64403;SDS011;50726;54.912;-8.392;2023-02-04T07:08:20;302.40;;;214.05;;
64403;SDS011;50726;54.912;-8.392;2023-02-04T07:10:46;309.92;;;219.13;;
64403;SDS011;50726;54.912;-8.392;2023-02-04T07:13:12;302.42;;;219.55;;
64403;SDS011;50726;54.912;-8.392;2023-02-04T07:15:38;313.98;;;223.07;;
64403;SDS011;50726;54.912;-8.392;2023-02-04T07:18:03;300.45;;;217.90;;
64403;SDS011;50726;54.912;-8.392;2023-02-04T07:20:29;300.52;;;221.63;;
64403;SDS011;50726;54.912;-8.392;2023-02-04T07:22:55;292.98;;;216.85;;
64403;SDS011;50726;54.912;-8.392;2023-02-04T07:25:20;304.15;;;212.38;;
64403;SDS011;50726;54.912;-8.392;2023-02-04T07:27:46;301.13;;;211.07;;
64403;SDS011;50726;54.912;-8.392;2023-02-04T07:30:12;301.35;;;206.60;;
64403;SDS011;50726;54.912;-8.392;2023-02-04T07:32:37;302.67;;;211.95;;
64403;SDS011;50726;54.912;-8.392;2023-02-04T07:35:03;304.13;;;213.65;;
64403;SDS011;50726;54.912;-8.392;2023-02-04T07:37:29;312.98;;;215.98;;
64403;SDS011;50726;54.912;-8.392;2023-02-04T07:39:55;306.33;;;220.68;;
64403;SDS011;50726;54.912;-8.392;2023-02-04T07:42:22;307.60;;;216.02;;
64403;SDS011;50726;54.912;-8.392;2023-02-04T07:44:47;311.98;;;219.57;;
64403;SDS011;50726;54.912;-8.392;2023-02-04T07:47:13;309.67;;;219.23;;
64403;SDS011;50726;54.912;-8.392;2023-02-04T07:49:39;314.25;;;221.85;;
64403;SDS011;50726;54.912;-8.392;2023-02-04T07:52:05;302.27;;;219.52;;
64403;SDS011;50726;54.912;-8.392;2023-02-04T07:54:34;309.52;;;216.48;;
64403;SDS011;50726;54.912;-8.392;2023-02-04T07:56:59;301.52;;;211.32;;
64403;SDS011;50726;54.912;-8.392;2023-02-04T07:59:25;302.58;;;208.60;;
64403;SDS011;50726;54.912;-8.392;2023-02-04T08:01:51;306.52;;;185.63;;
64403;SDS011;50726;54.912;-8.392;2023-02-04T08:04:16;302.63;;;188.82;;
64403;SDS011;50726;54.912;-8.392;2023-02-04T08:06:42;300.35;;;185.88;;
64403;SDS011;50726;54.912;-8.392;2023-02-04T08:09:07;304.80;;;188.38;;
64403;SDS011;50726;54.912;-8.392;2023-02-04T08:11:33;312.85;;;191.73;;
64403;SDS011;50726;54.912;-8.392;2023-02-04T08:13:59;318.80;;;196.90;;
64403;SDS011;50726;54.912;-8.392;2023-02-04T08:16:24;308.25;;;193.25;;
64403;SDS011;50726;54.912;-8.392;2023-02-04T08:18:50;300.98;;;189.05;;
64403;SDS011;50726;54.912;-8.392;2023-02-04T08:21:15;306.80;;;190.32;;
64403;SDS011;50726;54.912;-8.392;2023-02-04T08:23:41;294.35;;;184.98;;
64403;SDS011;50726;54.912;-8.392;2023-02-04T08:26:07;305.50;;;187.13;;
64403;SDS011;50726;54.912;-8.392;2023-02-04T08:28:35;297.88;;;182.55;;
64403;SDS011;50726;54.912;-8.392;2023-02-04T08:31:02;296.90;;;188.18;;
64403;SDS011;50726;54.912;-8.392;2023-02-04T08:33:31;302.75;;;186.30;;
64403;SDS011;50726;54.912;-8.392;2023-02-04T08:35:57;312.40;;;185.93;;
64403;SDS011;50726;54.912;-8.392;2023-02-04T08:38:22;311.13;;;189.75;;
64403;SDS011;50726;54.912;-8.392;2023-02-04T08:40:48;302.35;;;191.43;;
64403;SDS011;50726;54.912;-8.392;2023-02-04T08:43:18;298.83;;;188.77;;
64403;SDS011;50726;54.912;-8.392;2023-02-04T08:48:15;296.60;;;175.05;;
64403;SDS011;50726;54.912;-8.392;2023-02-04T08:50:41;294.60;;;208.45;;
64403;SDS011;50726;54.912;-8.392;2023-02-04T08:53:06;283.38;;;204.50;;
64403;SDS011;50726;54.912;-8.392;2023-02-04T08:55:32;292.00;;;209.88;;
64403;SDS011;50726;54.912;-8.392;2023-02-04T08:57:58;279.80;;;198.35;;
64403;SDS011;50726;54.912;-8.392;2023-02-04T09:00:25;298.17;;;207.02;;
64403;SDS011;50726;54.912;-8.392;2023-02-04T09:02:51;289.35;;;198.05;;
64403;SDS011;50726;54.912;-8.392;2023-02-04T09:05:17;299.95;;;206.48;;
64403;SDS011;50726;54.912;-8.392;2023-02-04T09:07:43;291.80;;;204.85;;
64403;SDS011;50726;54.912;-8.392;2023-02-04T09:10:08;290.52;;;202.88;;
64403;SDS011;50726;54.912;-8.392;2023-02-04T09:12:35;306.98;;;210.68;;
64403;SDS011;50726;54.912;-8.392;2023-02-04T09:15:01;309.63;;;217.50;;
64403;SDS011;50726;54.912;-8.392;2023-02-04T09:17:26;305.85;;;212.02;;
64403;SDS011;50726;54.912;-8.392;2023-02-04T09:19:52;304.15;;;217.30;;
64403;SDS011;50726;54.912;-8.392;2023-02-04T09:22:18;319.05;;;218.82;;
64403;SDS011;50726;54.912;-8.392;2023-02-04T09:24:45;321.73;;;216.50;;
64403;SDS011;50726;54.912;-8.392;2023-02-04T09:27:11;316.10;;;216.35;;
64403;SDS011;50726;54.912;-8.392;2023-02-04T09:29:38;322.77;;;214.70;;
64403;SDS011;50726;54.912;-8.392;2023-02-04T09:32:04;315.58;;;210.48;;
64403;SDS011;50726;54.912;-8.392;2023-02-04T09:34:31;323.85;;;217.35;;
64403;SDS011;50726;54.912;-8.392;2023-02-04T09:36:56;324.15;;;212.68;;
64403;SDS011;50726;54.912;-8.392;2023-02-04T09:39:30;340.75;;;217.20;;
64403;SDS011;50726;54.912;-8.392;2023-02-04T09:41:57;320.10;;;216.85;;
64403;SDS011;50726;54.912;-8.392;2023-02-04T09:44:23;307.80;;;216.18;;
64403;SDS011;50726;54.912;-8.392;2023-02-04T09:46:54;302.20;;;211.98;;
64403;SDS011;50726;54.912;-8.392;2023-02-04T09:49:23;289.27;;;210.38;;
64403;SDS011;50726;54.912;-8.392;2023-02-04T09:51:50;294.52;;;217.13;;
64403;SDS011;50726;54.912;-8.392;2023-02-04T09:54:19;291.30;;;211.30;;
64403;SDS011;50726;54.912;-8.392;2023-02-04T09:56:46;289.95;;;204.38;;
64403;SDS011;50726;54.912;-8.392;2023-02-04T09:59:25;280.48;;;209.60;;
64403;SDS011;50726;54.912;-8.392;2023-02-04T10:02:01;275.40;;;210.02;;
64403;SDS011;50726;54.912;-8.392;2023-02-04T10:04:29;278.73;;;215.10;;
64403;SDS011;50726;54.912;-8.392;2023-02-04T10:06:55;274.58;;;211.77;;
64403;SDS011;50726;54.912;-8.392;2023-02-04T10:09:24;294.38;;;210.73;;
64403;SDS011;50726;54.912;-8.392;2023-02-04T10:11:50;296.17;;;205.07;;
64403;SDS011;50726;54.912;-8.392;2023-02-04T10:14:20;282.50;;;215.43;;
64403;SDS011;50726;54.912;-8.392;2023-02-04T10:16:51;293.23;;;219.90;;
64403;SDS011;50726;54.912;-8.392;2023-02-04T10:19:21;280.67;;;209.93;;
64403;SDS011;50726;54.912;-8.392;2023-02-04T10:21:48;298.60;;;219.90;;
64403;SDS011;50726;54.912;-8.392;2023-02-04T10:24:24;299.10;;;218.85;;
64403;SDS011;50726;54.912;-8.392;2023-02-04T10:26:52;289.65;;;217.18;;
64403;SDS011;50726;54.912;-8.392;2023-02-04T10:29:19;284.15;;;225.50;;
64403;SDS011;50726;54.912;-8.392;2023-02-04T10:31:49;286.80;;;213.27;;
64403;SDS011;50726;54.912;-8.392;2023-02-04T10:37:18;275.02;;;218.10;;
64403;SDS011;50726;54.912;-8.392;2023-02-04T10:39:45;286.48;;;210.75;;
64403;SDS011;50726;54.912;-8.392;2023-02-04T10:42:22;280.10;;;217.95;;
64403;SDS011;50726;54.912;-8.392;2023-02-04T10:44:58;292.55;;;224.70;;
64403;SDS011;50726;54.912;-8.392;2023-02-04T10:47:24;285.20;;;210.95;;
64403;SDS011;50726;54.912;-8.392;2023-02-04T10:52:25;303.83;;;217.10;;
64403;SDS011;50726;54.912;-8.392;2023-02-04T10:54:58;291.95;;;211.02;;
64403;SDS011;50726;54.912;-8.392;2023-02-04T10:57:26;303.23;;;221.45;;
64403;SDS011;50726;54.912;-8.392;2023-02-04T10:59:54;303.95;;;217.38;;
64403;SDS011;50726;54.912;-8.392;2023-02-04T11:04:57;285.05;;;221.27;;
64403;SDS011;50726;54.912;-8.392;2023-02-04T11:07:23;292.67;;;215.25;;
64403;SDS011;50726;54.912;-8.392;2023-02-04T11:09:49;293.30;;;219.30;;
64403;SDS011;50726;54.912;-8.392;2023-02-04T11:15:46;303.73;;;229.75;;
64403;SDS011;50726;54.912;-8.392;2023-02-04T11:20:46;318.10;;;244.57;;
64403;SDS011;50726;54.912;-8.392;2023-02-04T11:28:43;408.90;;;363.88;;
64403;SDS011;50726;54.912;-8.392;2023-02-04T11:33:46;593.15;;;539.00;;
64403;SDS011;50726;54.912;-8.392;2023-02-04T11:36:13;632.00;;;576.60;;
64403;SDS011;50726;54.912;-8.392;2023-02-04T11:38:55;644.13;;;587.03;;
64403;SDS011;50726;54.912;-8.392;2023-02-04T11:41:28;695.42;;;636.33;;
64403;SDS011;50726;54.912;-8.392;2023-02-04T11:43:56;781.53;;;716.78;;
64403;SDS011;50726;54.912;-8.392;2023-02-04T11:46:22;790.40;;;724.30;;
64403;SDS011;50726;54.912;-8.392;2023-02-04T11:48:54;794.17;;;727.23;;
64403;SDS011;50726;54.912;-8.392;2023-02-04T11:51:30;783.08;;;718.03;;
64403;SDS011;50726;54.912;-8.392;2023-02-04T11:53:58;729.83;;;668.25;;
64403;SDS011;50726;54.912;-8.392;2023-02-04T11:56:27;734.63;;;670.50;;
64403;SDS011;50726;54.912;-8.392;2023-02-04T11:58:57;802.00;;;724.30;;
64403;SDS011;50726;54.912;-8.392;2023-02-04T12:01:24;1259.80;;;945.75;;
64403;SDS011;50726;54.912;-8.392;2023-02-04T12:03:55;1272.43;;;936.85;;
64403;SDS011;50726;54.912;-8.392;2023-02-04T12:06:23;1292.15;;;960.63;;
64403;SDS011;50726;54.912;-8.392;2023-02-04T12:08:50;1274.38;;;957.08;;
64403;SDS011;50726;54.912;-8.392;2023-02-04T12:11:37;1258.35;;;958.22;;
64403;SDS011;50726;54.912;-8.392;2023-02-04T12:14:06;1350.47;;;959.42;;
64403;SDS011;50726;54.912;-8.392;2023-02-04T12:17:11;1408.90;;;974.10;;
64403;SDS011;50726;54.912;-8.392;2023-02-04T12:19:26;1391.88;;;967.33;;
64403;SDS011;50726;54.912;-8.392;2023-02-04T12:21:52;1421.75;;;983.97;;
64403;SDS011;50726;54.912;-8.392;2023-02-04T12:24:18;1390.25;;;966.33;;
64403;SDS011;50726;54.912;-8.392;2023-02-04T12:26:44;1459.38;;;993.13;;
64403;SDS011;50726;54.912;-8.392;2023-02-04T12:29:11;1494.10;;;999.90;;
64403;SDS011;50726;54.912;-8.392;2023-02-04T12:31:36;1467.85;;;997.08;;
64403;SDS011;50726;54.912;-8.392;2023-02-04T12:34:03;1494.45;;;999.22;;
64403;SDS011;50726;54.912;-8.392;2023-02-04T12:36:29;1468.88;;;995.70;;
64403;SDS011;50726;54.912;-8.392;2023-02-04T12:38:55;1499.00;;;999.90;;
64403;SDS011;50726;54.912;-8.392;2023-02-04T12:41:23;1507.43;;;999.90;;
64403;SDS011;50726;54.912;-8.392;2023-02-04T12:43:49;1490.82;;;999.90;;
64403;SDS011;50726;54.912;-8.392;2023-02-04T12:46:15;1472.72;;;999.90;;
64403;SDS011;50726;54.912;-8.392;2023-02-04T12:48:41;1469.03;;;999.90;;
64403;SDS011;50726;54.912;-8.392;2023-02-04T12:51:08;1477.18;;;999.90;;
64403;SDS011;50726;54.912;-8.392;2023-02-04T12:53:34;1479.63;;;999.90;;
64403;SDS011;50726;54.912;-8.392;2023-02-04T12:55:59;1455.63;;;999.90;;
64403;SDS011;50726;54.912;-8.392;2023-02-04T12:58:25;1467.03;;;999.90;;
64403;SDS011;50726;54.912;-8.392;2023-02-04T13:00:52;1444.07;;;999.90;;
64403;SDS011;50726;54.912;-8.392;2023-02-04T13:03:17;1441.57;;;999.90;;
64403;SDS011;50726;54.912;-8.392;2023-02-04T13:05:43;1435.25;;;999.90;;
64403;SDS011;50726;54.912;-8.392;2023-02-04T13:08:09;1412.13;;;999.90;;
64403;SDS011;50726;54.912;-8.392;2023-02-04T13:10:34;1423.70;;;999.90;;
64403;SDS011;50726;54.912;-8.392;2023-02-04T13:13:00;1422.40;;;999.90;;
64403;SDS011;50726;54.912;-8.392;2023-02-04T13:15:26;1419.78;;;999.90;;
64403;SDS011;50726;54.912;-8.392;2023-02-04T13:17:52;1389.00;;;999.90;;
64403;SDS011;50726;54.912;-8.392;2023-02-04T13:20:17;1392.70;;;999.90;;
64403;SDS011;50726;54.912;-8.392;2023-02-04T13:22:43;1423.32;;;999.90;;
64403;SDS011;50726;54.912;-8.392;2023-02-04T13:25:09;1451.63;;;999.90;;
64403;SDS011;50726;54.912;-8.392;2023-02-04T13:27:36;1468.68;;;999.90;;
64403;SDS011;50726;54.912;-8.392;2023-02-04T13:32:32;1416.90;;;999.90;;
64403;SDS011;50726;54.912;-8.392;2023-02-04T13:34:57;1353.80;;;999.90;;
64403;SDS011;50726;54.912;-8.392;2023-02-04T13:37:24;1317.47;;;999.90;;
64403;SDS011;50726;54.912;-8.392;2023-02-04T13:39:51;855.60;;;778.90;;
64403;SDS011;50726;54.912;-8.392;2023-02-04T13:42:16;881.28;;;798.45;;
64403;SDS011;50726;54.912;-8.392;2023-02-04T13:44:42;866.13;;;785.60;;
64403;SDS011;50726;54.912;-8.392;2023-02-04T13:47:08;838.15;;;761.33;;
64403;SDS011;50726;54.912;-8.392;2023-02-04T13:49:33;835.55;;;758.15;;
64403;SDS011;50726;54.912;-8.392;2023-02-04T13:51:59;853.45;;;775.38;;
64403;SDS011;50726;54.912;-8.392;2023-02-04T13:54:25;795.00;;;722.63;;
64403;SDS011;50726;54.912;-8.392;2023-02-04T13:56:51;794.65;;;723.58;;
64403;SDS011;50726;54.912;-8.392;2023-02-04T13:59:17;869.45;;;790.20;;
64403;SDS011;50726;54.912;-8.392;2023-02-04T14:01:43;868.60;;;786.63;;
64403;SDS011;50726;54.912;-8.392;2023-02-04T14:04:09;886.38;;;804.35;;
64403;SDS011;50726;54.912;-8.392;2023-02-04T14:06:35;909.70;;;824.83;;
64403;SDS011;50726;54.912;-8.392;2023-02-04T14:09:08;911.50;;;825.67;;
64403;SDS011;50726;54.912;-8.392;2023-02-04T14:11:35;911.13;;;822.72;;
64403;SDS011;50726;54.912;-8.392;2023-02-04T14:14:01;865.67;;;784.63;;
64403;SDS011;50726;54.912;-8.392;2023-02-04T14:16:27;822.50;;;749.83;;
64403;SDS011;50726;54.912;-8.392;2023-02-04T14:18:52;877.90;;;803.03;;
64403;SDS011;50726;54.912;-8.392;2023-02-04T14:21:18;925.15;;;844.58;;
64403;SDS011;50726;54.912;-8.392;2023-02-04T14:26:15;878.95;;;803.63;;
64403;SDS011;50726;54.912;-8.392;2023-02-04T14:28:40;890.92;;;814.13;;